Time;durP1;ratioP1;P1;durP2;ratioP2;P2;SDS_P1;SDS_P2;PMS_P1;PMS_P2;Temp;Humidity;BMP_temperature;BMP_pressure;BME280_temperature;BME280_humidity;BME280_pressure;Samples;Min_cycle;Max_cycle;Signal;HPM_P1;HPM_P2
2023/08/23 00:01:32;;;;;;;6.97;2.90;;;;;;;-148.15;100.00;61821.78;4938699;29;20133;-95
2023/08/23 00:03:57;;;;;;;6.77;2.73;;;;;;;-148.15;100.00;61821.78;4956593;29;20103;-96
2023/08/23 00:06:23;;;;;;;8.77;2.77;;;;;;;-148.15;100.00;61821.78;4962726;28;20025;-96
2023/08/23 00:08:49;;;;;;;6.97;2.53;;;;;;;-148.15;100.00;61821.78;4979282;28;20028;-96
2023/08/23 00:11:14;;;;;;;8.83;3.00;;;;;;;-148.15;100.00;61821.78;4975820;28;20086;-96
2023/08/23 00:13:39;;;;;;;5.25;3.05;;;;;;;-148.15;100.00;61821.78;4975186;28;20478;-96
2023/08/23 00:16:05;;;;;;;6.47;2.70;;;;;;;-148.15;100.00;61821.78;4977869;28;20019;-93
2023/08/23 00:18:30;;;;;;;7.60;2.97;;;;;;;-148.15;100.00;61821.78;4978038;28;20022;-95
2023/08/23 00:20:56;;;;;;;3.80;2.60;;;;;;;-148.15;100.00;61821.78;4959786;28;20074;-96
2023/08/23 00:23:21;;;;;;;3.95;2.70;;;;;;;-148.15;100.00;61821.78;4976642;28;20034;-96
2023/08/23 00:25:46;;;;;;;4.47;2.90;;;;;;;-148.15;100.00;61821.78;4959562;28;20030;-96
2023/08/23 00:28:12;;;;;;;7.73;2.93;;;;;;;-148.15;100.00;61821.78;4977448;28;20054;-95
2023/08/23 00:30:37;;;;;;;5.87;2.70;;;;;;;-148.15;100.00;61821.78;4960851;28;20026;-96
2023/08/23 00:33:03;;;;;;;7.38;3.00;;;;;;;-148.15;100.00;61821.78;4962433;28;20655;-95
2023/08/23 00:35:28;;;;;;;5.70;2.80;;;;;;;-148.15;100.00;61821.78;4961818;28;20094;-95
2023/08/23 00:37:53;;;;;;;5.27;2.93;;;;;;;-148.15;100.00;61821.78;4980645;28;20031;-95
2023/08/23 00:40:20;;;;;;;3.97;2.60;;;;;;;-148.15;100.00;61821.78;4979377;28;20058;-95
2023/08/23 00:42:45;;;;;;;6.25;2.60;;;;;;;-148.15;100.00;61821.78;4980082;28;20043;-95
2023/08/23 00:45:11;;;;;;;7.03;2.83;;;;;;;-148.15;100.00;61821.78;4974932;28;20382;-95
2023/08/23 00:47:36;;;;;;;5.70;2.80;;;;;;;-148.15;100.00;61821.78;4973330;28;20395;-96
2023/08/23 00:50:03;;;;;;;5.17;2.60;;;;;;;-148.15;100.00;61821.78;4974006;28;20031;-95
2023/08/23 00:52:28;;;;;;;4.72;2.88;;;;;;;-148.15;100.00;61821.78;4969567;28;20090;-95
2023/08/23 00:54:57;;;;;;;6.93;2.53;;;;;;;-148.15;100.00;61821.78;4986739;28;20046;-96
2023/08/23 00:57:23;;;;;;;4.15;2.83;;;;;;;-148.15;100.00;61821.78;4958087;28;20042;-95
2023/08/23 00:59:48;;;;;;;5.28;3.03;;;;;;;-148.15;100.00;61821.78;4993505;28;20030;-96
2023/08/23 01:02:13;;;;;;;9.23;3.00;;;;;;;-148.15;100.00;61821.78;4974559;28;20458;-95
2023/08/23 01:04:39;;;;;;;6.80;2.60;;;;;;;-148.15;100.00;61821.78;4973918;28;20429;-95
2023/08/23 01:07:13;;;;;;;5.50;2.67;;;;;;;-148.15;100.00;61821.78;4974866;28;20110;-94
2023/08/23 01:10:12;;;;;;;7.60;2.80;;;;;;;-148.15;100.00;61821.78;4975032;28;20062;-95
2023/08/23 01:12:45;;;;;;;6.97;2.83;;;;;;;-148.15;100.00;61821.78;4973595;28;20293;-95
2023/08/23 01:15:12;;;;;;;4.55;2.70;;;;;;;-148.15;100.00;61821.78;4955164;28;20447;-95
2023/08/23 01:17:42;;;;;;;4.75;2.85;;;;;;;-148.15;100.00;61821.78;4949395;28;20042;-95
2023/08/23 01:20:10;;;;;;;6.95;3.13;;;;;;;-148.15;100.00;61821.78;4974085;28;20057;-95
2023/08/23 01:22:39;;;;;;;4.45;2.72;;;;;;;-148.15;100.00;61821.78;4956027;28;20027;-95
2023/08/23 01:25:05;;;;;;;3.83;2.83;;;;;;;-148.15;100.00;61821.78;4968916;28;20058;-95
2023/08/23 01:27:32;;;;;;;4.18;2.83;;;;;;;-148.15;100.00;61821.78;4973310;28;20027;-95
2023/08/23 01:29:58;;;;;;;4.30;3.08;;;;;;;-148.15;100.00;61821.78;4956993;28;20041;-95
2023/08/23 01:32:42;;;;;;;4.37;2.63;;;;;;;-148.15;100.00;61821.78;4977546;28;20081;-95
2023/08/23 01:35:14;;;;;;;6.70;3.10;;;;;;;-148.15;100.00;61821.78;4962431;28;20344;-94
2023/08/23 01:37:42;;;;;;;3.17;2.42;;;;;;;-148.15;100.00;61821.78;4966194;28;20027;-96
2023/08/23 01:40:10;;;;;;;3.25;2.33;;;;;;;-148.15;100.00;61821.78;4983108;28;20030;-94
2023/08/23 01:42:36;;;;;;;4.35;3.20;;;;;;;-148.15;100.00;61821.78;4982423;28;20046;-95
2023/08/23 01:45:02;;;;;;;5.05;3.05;;;;;;;-148.15;100.00;61821.78;4979690;28;20027;-95
2023/08/23 01:47:28;;;;;;;2.83;2.45;;;;;;;-148.15;100.00;61821.78;4959539;28;20391;-94
2023/08/23 01:49:54;;;;;;;6.23;2.97;;;;;;;-148.15;100.00;61821.78;4976700;28;20027;-94
2023/08/23 01:52:19;;;;;;;2.90;2.58;;;;;;;-148.15;100.00;61821.78;4977861;28;20034;-95
2023/08/23 01:54:44;;;;;;;7.23;2.80;;;;;;;-148.15;100.00;61821.78;4959716;28;20031;-94
2023/08/23 01:57:10;;;;;;;7.10;2.70;;;;;;;-148.15;100.00;61821.78;4959427;28;20059;-95
2023/08/23 01:59:36;;;;;;;4.03;2.83;;;;;;;-148.15;100.00;61821.78;4976887;28;20037;-94
2023/08/23 02:02:01;;;;;;;6.37;2.90;;;;;;;-148.15;100.00;61821.78;4978117;28;20030;-94
2023/08/23 02:04:28;;;;;;;6.43;2.85;;;;;;;-148.15;100.00;61821.78;4955726;29;20024;-95
2023/08/23 02:06:53;;;;;;;2.70;2.50;;;;;;;-148.15;100.00;61821.78;4957124;29;20034;-95
2023/08/23 02:09:18;;;;;;;4.40;2.83;;;;;;;-148.15;100.00;61821.78;4957913;28;20279;-93
2023/08/23 02:11:44;;;;;;;6.73;2.77;;;;;;;-148.15;100.00;61821.78;4974632;28;20038;-95
2023/08/23 02:14:09;;;;;;;5.00;2.83;;;;;;;-148.15;100.00;61821.78;4966306;28;20035;-95
2023/08/23 02:16:34;;;;;;;4.00;2.80;;;;;;;-148.15;100.00;61821.78;4979165;28;20049;-95
2023/08/23 02:19:18;;;;;;;6.00;2.85;;;;;;;-148.15;100.00;61821.78;4997323;28;20033;-96
2023/08/23 02:21:44;;;;;;;4.27;2.60;;;;;;;-148.15;100.00;61821.78;4977430;28;20034;-95
2023/08/23 02:24:10;;;;;;;3.97;2.75;;;;;;;-148.15;100.00;61821.78;4976029;28;20483;-95
2023/08/23 02:26:35;;;;;;;4.65;2.70;;;;;;;-148.15;100.00;61821.78;4958863;28;20034;-94
2023/08/23 02:29:01;;;;;;;4.63;3.00;;;;;;;-148.15;100.00;61821.78;4976353;28;20487;-94
2023/08/23 02:31:27;;;;;;;3.00;2.60;;;;;;;-148.15;100.00;61821.78;4958685;28;20031;-94
2023/08/23 02:33:52;;;;;;;6.77;2.93;;;;;;;-148.15;100.00;61821.78;4976138;28;20038;-95
2023/08/23 02:36:17;;;;;;;3.20;2.90;;;;;;;-148.15;100.00;61821.78;4976051;28;20026;-95
2023/08/23 02:38:43;;;;;;;3.10;2.63;;;;;;;-148.15;100.00;61821.78;4975455;28;20037;-95
2023/08/23 02:41:08;;;;;;;4.30;3.00;;;;;;;-148.15;100.00;61821.78;4959189;28;20133;-94
2023/08/23 02:43:34;;;;;;;5.87;3.00;;;;;;;-148.15;100.00;61821.78;4957774;28;20030;-93
2023/08/23 02:46:00;;;;;;;4.43;2.85;;;;;;;-148.15;100.00;61821.78;4974084;28;20121;-94
2023/08/23 02:48:25;;;;;;;3.83;2.67;;;;;;;-148.15;100.00;61821.78;4975644;28;20503;-94
2023/08/23 02:51:30;;;;;;;4.97;2.70;;;;;;;-148.15;100.00;61821.78;5035528;23;20116;-95
2023/08/23 02:57:17;;;;;;;6.18;3.00;;;;;;;-148.15;100.00;61821.78;4919992;28;20053;-94
2023/08/23 02:59:43;;;;;;;5.43;2.97;;;;;;;-148.15;100.00;61821.78;4995340;28;20249;-95
2023/08/23 03:02:08;;;;;;;5.03;2.80;;;;;;;-148.15;100.00;61821.78;4988844;28;20027;-94
2023/08/23 03:04:33;;;;;;;4.50;2.60;;;;;;;-148.15;100.00;61821.78;4989335;28;20034;-95
2023/08/23 03:06:59;;;;;;;6.50;2.70;;;;;;;-148.15;100.00;61821.78;4996002;28;20425;-95
2023/08/23 03:09:24;;;;;;;4.73;2.60;;;;;;;-148.15;100.00;61821.78;4995063;28;20661;-95
2023/08/23 03:11:49;;;;;;;2.57;2.33;;;;;;;-148.15;100.00;61821.78;4981418;28;20035;-94
2023/08/23 03:14:15;;;;;;;5.17;2.40;;;;;;;-148.15;100.00;61821.78;5013620;28;20269;-94
2023/08/23 03:16:40;;;;;;;4.57;2.93;;;;;;;-148.15;100.00;61821.78;5007646;28;20142;-93
2023/08/23 03:19:08;;;;;;;3.93;2.97;;;;;;;-148.15;100.00;61821.78;4991080;28;20034;-94
2023/08/23 03:21:33;;;;;;;4.00;2.97;;;;;;;-148.15;100.00;61821.78;4981499;28;20622;-94
2023/08/23 03:23:58;;;;;;;5.20;3.10;;;;;;;-148.15;100.00;61821.78;5000606;28;20041;-95
2023/08/23 03:26:24;;;;;;;7.07;3.15;;;;;;;-148.15;100.00;61821.78;4999372;28;20037;-95
2023/08/23 03:28:49;;;;;;;3.17;2.87;;;;;;;-148.15;100.00;61821.78;4998663;28;20035;-94
2023/08/23 03:31:14;;;;;;;4.30;3.10;;;;;;;-148.15;100.00;61821.78;4989629;28;20043;-95
2023/08/23 03:33:40;;;;;;;3.53;3.00;;;;;;;-148.15;100.00;61821.78;4978667;28;20038;-95
2023/08/23 03:36:06;;;;;;;7.27;3.00;;;;;;;-148.15;100.00;61821.78;4963475;28;20035;-95
2023/08/23 03:38:31;;;;;;;8.90;3.60;;;;;;;-148.15;100.00;61821.78;4972181;28;20065;-95
2023/08/23 03:40:56;;;;;;;3.77;3.17;;;;;;;-148.15;100.00;61821.78;4981225;28;20022;-95
2023/08/23 03:43:22;;;;;;;5.82;3.13;;;;;;;-148.15;100.00;61821.78;4998550;28;20389;-95
2023/08/23 03:45:48;;;;;;;4.30;3.30;;;;;;;-148.15;100.00;61821.78;4997465;28;20046;-94
2023/08/23 03:48:14;;;;;;;3.70;3.00;;;;;;;-148.15;100.00;61821.78;4992711;28;20035;-94
2023/08/23 03:50:40;;;;;;;3.83;2.97;;;;;;;-148.15;100.00;61821.78;4980570;28;20015;-94
2023/08/23 03:53:05;;;;;;;5.33;3.47;;;;;;;-148.15;100.00;61821.78;4980048;28;20041;-95
2023/08/23 03:55:32;;;;;;;6.17;3.17;;;;;;;-148.15;100.00;61821.78;4981166;28;20019;-94
2023/08/23 03:57:57;;;;;;;5.85;2.97;;;;;;;-148.15;100.00;61821.78;4997491;28;20079;-95
2023/08/23 04:00:22;;;;;;;6.03;3.17;;;;;;;-148.15;100.00;61821.78;4997927;28;20011;-95
2023/08/23 04:02:48;;;;;;;6.22;3.00;;;;;;;-148.15;100.00;61821.78;4997416;28;20007;-93
2023/08/23 04:05:14;;;;;;;5.00;3.10;;;;;;;-148.15;100.00;61821.78;4995642;28;20038;-91
2023/08/23 04:07:39;;;;;;;3.83;3.53;;;;;;;-148.15;100.00;61821.78;5014139;28;20024;-91
2023/08/23 04:10:06;;;;;;;4.45;3.30;;;;;;;-148.15;100.00;61821.78;5014854;28;20043;-92
2023/08/23 04:12:31;;;;;;;4.10;3.30;;;;;;;-148.15;100.00;61821.78;5013943;28;20034;-92
2023/08/23 04:14:56;;;;;;;4.93;3.43;;;;;;;-148.15;100.00;61821.78;5014619;28;20030;-92
2023/08/23 04:17:23;;;;;;;4.27;3.37;;;;;;;-148.15;100.00;61821.78;5006963;28;20049;-92
2023/08/23 04:19:49;;;;;;;5.57;3.05;;;;;;;-148.15;100.00;61821.78;4995382;28;20037;-93
2023/08/23 04:22:14;;;;;;;5.18;3.38;;;;;;;-148.15;100.00;61821.78;4997702;28;20129;-91
2023/08/23 04:24:40;;;;;;;6.30;2.87;;;;;;;-148.15;100.00;61821.78;4998261;28;20049;-92
2023/08/23 04:27:05;;;;;;;4.77;2.63;;;;;;;-148.15;100.00;61821.78;4979991;28;20058;-93
2023/08/23 04:29:30;;;;;;;4.00;2.53;;;;;;;-148.15;100.00;61821.78;4994617;28;20447;-93
2023/08/23 04:31:56;;;;;;;5.00;2.63;;;;;;;-148.15;100.00;61821.78;4994710;28;20042;-93
2023/08/23 04:34:21;;;;;;;3.70;2.37;;;;;;;-148.15;100.00;61821.78;4994168;28;20030;-92
2023/08/23 04:36:46;;;;;;;3.97;2.70;;;;;;;-148.15;100.00;61821.78;4994224;28;20019;-92
2023/08/23 04:39:12;;;;;;;4.60;2.60;;;;;;;-148.15;100.00;61821.78;4993860;28;20022;-93
2023/08/23 04:41:37;;;;;;;5.60;2.88;;;;;;;-148.15;100.00;61821.78;4977026;28;20060;-92
2023/08/23 04:44:03;;;;;;;5.20;2.80;;;;;;;-148.15;100.00;61821.78;4994849;28;20026;-92
2023/08/23 04:46:28;;;;;;;4.03;2.80;;;;;;;-148.15;100.00;61821.78;4993034;28;20030;-93
2023/08/23 04:48:53;;;;;;;4.90;3.00;;;;;;;-148.15;100.00;61821.78;4980106;28;20081;-93
2023/08/23 04:51:21;;;;;;;3.43;3.10;;;;;;;-148.15;100.00;61821.78;4990662;28;20019;-92
2023/08/23 04:53:46;;;;;;;6.72;3.10;;;;;;;-148.15;100.00;61821.78;4978336;28;20022;-92
2023/08/23 04:56:12;;;;;;;4.40;3.03;;;;;;;-148.15;100.00;61821.78;4989957;28;20033;-92
2023/08/23 04:58:38;;;;;;;4.13;2.88;;;;;;;-148.15;100.00;61821.78;5011957;28;20451;-92
2023/08/23 05:01:04;;;;;;;6.07;2.50;;;;;;;-148.15;100.00;61821.78;4996433;28;20054;-92
2023/08/23 05:03:30;;;;;;;3.90;2.90;;;;;;;-148.15;100.00;61821.78;4994353;28;20277;-93
2023/08/23 05:05:57;;;;;;;3.13;2.83;;;;;;;-148.15;100.00;61821.78;4992341;28;20125;-92
2023/08/23 05:08:22;;;;;;;5.38;2.95;;;;;;;-148.15;100.00;61821.78;4993766;28;20026;-92
2023/08/23 05:10:53;;;;;;;4.47;2.57;;;;;;;-148.15;100.00;61821.78;4994119;28;20510;-93
2023/08/23 05:13:19;;;;;;;3.78;2.72;;;;;;;-148.15;100.00;61821.78;4976815;28;20560;-93
2023/08/23 05:15:50;;;;;;;4.65;2.80;;;;;;;-148.15;100.00;61821.78;4994789;28;20022;-93
2023/08/23 05:18:16;;;;;;;3.40;2.40;;;;;;;-148.15;100.00;61821.78;4999284;28;20041;-92
2023/08/23 05:20:41;;;;;;;5.40;2.77;;;;;;;-148.15;100.00;61821.78;4994151;28;20018;-92
2023/08/23 05:23:06;;;;;;;3.90;2.40;;;;;;;-148.15;100.00;61821.78;4997787;28;20034;-92
2023/08/23 05:25:32;;;;;;;5.13;2.63;;;;;;;-148.15;100.00;61821.78;5006316;28;20058;-92
2023/08/23 05:27:57;;;;;;;4.97;2.67;;;;;;;-148.15;100.00;61821.78;5008079;28;20041;-92
2023/08/23 05:30:22;;;;;;;3.37;3.07;;;;;;;-148.15;100.00;61821.78;5008351;28;20332;-93
2023/08/23 05:32:48;;;;;;;5.80;2.90;;;;;;;-148.15;100.00;61821.78;4993776;28;20011;-91
2023/08/23 05:35:13;;;;;;;5.67;2.80;;;;;;;-148.15;100.00;61821.78;4996716;28;20030;-90
2023/08/23 05:37:39;;;;;;;6.33;3.23;;;;;;;-148.15;100.00;61821.78;4992535;28;20039;-91
2023/08/23 05:40:06;;;;;;;8.82;3.40;;;;;;;-148.15;100.00;61821.78;4965926;28;20031;-94
2023/08/23 05:42:31;;;;;;;8.02;2.90;;;;;;;-148.15;100.00;61821.78;4983841;28;20034;-92
2023/08/23 05:44:58;;;;;;;6.20;3.10;;;;;;;-148.15;100.00;61821.78;5002801;28;20053;-96
2023/08/23 05:47:23;;;;;;;5.30;3.45;;;;;;;-148.15;100.00;61821.78;4994372;28;20081;-93
2023/08/23 05:49:49;;;;;;;5.63;3.40;;;;;;;-148.15;100.00;61821.78;4990329;28;20039;-94
2023/08/23 05:52:15;;;;;;;6.63;3.38;;;;;;;-148.15;100.00;61821.78;4994038;28;20027;-95
2023/08/23 05:54:41;;;;;;;5.57;3.97;;;;;;;-148.15;100.00;61821.78;4983187;28;20073;-96
2023/08/23 05:57:06;;;;;;;7.47;5.45;;;;;;;-148.15;100.00;61821.78;4986729;28;20054;-96
2023/08/23 05:59:33;;;;;;;8.90;5.87;;;;;;;-148.15;100.00;61821.78;4995584;28;20034;-95
2023/08/23 06:01:58;;;;;;;12.38;6.07;;;;;;;-148.15;100.00;61821.78;4996582;28;20033;-95
2023/08/23 06:04:24;;;;;;;9.30;5.43;;;;;;;-148.15;100.00;61821.78;5008433;28;20089;-94
2023/08/23 06:06:49;;;;;;;9.30;5.17;;;;;;;-148.15;100.00;61821.78;5009952;28;20082;-94
2023/08/23 06:09:17;;;;;;;7.50;5.20;;;;;;;-148.15;100.00;61821.78;5008080;28;20022;-94
2023/08/23 06:11:42;;;;;;;8.63;4.55;;;;;;;-148.15;100.00;61821.78;5009533;28;20014;-95
2023/08/23 06:14:20;;;;;;;7.07;4.90;;;;;;;-148.15;100.00;61821.78;5016835;28;20130;-95
2023/08/23 06:16:45;;;;;;;11.45;6.05;;;;;;;-148.15;100.00;61821.78;4998294;28;20026;-95
2023/08/23 06:19:14;;;;;;;9.30;5.80;;;;;;;-148.15;100.00;61821.78;5018900;28;20038;-95
2023/08/23 06:21:42;;;;;;;9.48;6.00;;;;;;;-148.15;100.00;61821.78;5017726;28;20027;-96
2023/08/23 06:24:08;;;;;;;6.30;5.00;;;;;;;-148.15;100.00;61821.78;4998030;28;20070;-93
2023/08/23 06:26:33;;;;;;;10.03;5.40;;;;;;;-148.15;100.00;61821.78;4994822;28;20714;-95
2023/08/23 06:28:58;;;;;;;9.13;6.13;;;;;;;-148.15;100.00;61821.78;4995721;28;20026;-93
2023/08/23 06:31:24;;;;;;;9.27;5.90;;;;;;;-148.15;100.00;61821.78;4996020;28;20289;-94
2023/08/23 06:33:49;;;;;;;11.17;6.60;;;;;;;-148.15;100.00;61821.78;4996499;28;20046;-95
2023/08/23 06:36:15;;;;;;;8.00;6.30;;;;;;;-148.15;100.00;61821.78;4992416;28;20030;-88
2023/08/23 06:38:44;;;;;;;12.93;6.93;;;;;;;-148.15;100.00;61821.78;4992653;28;20084;-86
2023/08/23 06:41:09;;;;;;;10.35;5.57;;;;;;;-148.15;100.00;61821.78;4991205;28;20045;-87
2023/08/23 06:43:35;;;;;;;9.93;5.90;;;;;;;-148.15;100.00;61821.78;4978262;28;20475;-88
2023/08/23 06:46:03;;;;;;;14.82;6.32;;;;;;;-148.15;100.00;61821.78;4973598;28;20043;-88
2023/08/23 06:48:28;;;;;;;13.23;6.30;;;;;;;-148.15;100.00;61821.78;4988379;28;20026;-88
2023/08/23 06:50:54;;;;;;;10.53;6.27;;;;;;;-148.15;100.00;61821.78;4993085;28;20300;-88
2023/08/23 06:53:20;;;;;;;11.57;6.13;;;;;;;-148.15;100.00;61821.78;4993205;28;20035;-88
2023/08/23 06:55:45;;;;;;;11.65;6.70;;;;;;;-148.15;100.00;61821.78;4990086;28;20042;-88
2023/08/23 06:58:11;;;;;;;12.10;6.97;;;;;;;-148.15;100.00;61821.78;4973706;28;20105;-88
2023/08/23 07:00:36;;;;;;;13.20;6.90;;;;;;;-148.15;100.00;61821.78;4974644;28;20053;-87
2023/08/23 07:03:02;;;;;;;9.90;6.40;;;;;;;-148.15;100.00;61821.78;4973934;28;20027;-88
2023/08/23 07:05:28;;;;;;;10.77;6.35;;;;;;;-148.15;100.00;61821.78;4974821;28;20027;-88
2023/08/23 07:07:54;;;;;;;15.75;6.72;;;;;;;-148.15;100.00;61821.78;4990949;28;20051;-87
2023/08/23 07:10:19;;;;;;;9.27;5.87;;;;;;;-148.15;100.00;61821.78;4990705;28;20050;-87
2023/08/23 07:12:45;;;;;;;9.38;5.70;;;;;;;-148.15;100.00;61821.78;4980449;28;20045;-89
2023/08/23 07:15:10;;;;;;;8.73;6.40;;;;;;;-148.15;100.00;61821.78;4989304;28;20621;-87
2023/08/23 07:17:36;;;;;;;8.60;5.90;;;;;;;-148.15;100.00;61821.78;4972759;28;20390;-88
2023/08/23 07:20:05;;;;;;;8.40;5.65;;;;;;;-148.15;100.00;61821.78;4981074;28;20036;-87
2023/08/23 07:22:30;;;;;;;12.75;6.28;;;;;;;-148.15;100.00;61821.78;4992568;28;20022;-88
2023/08/23 07:24:56;;;;;;;10.87;5.97;;;;;;;-148.15;100.00;61821.78;4993142;28;20037;-88
2023/08/23 07:27:21;;;;;;;10.23;5.70;;;;;;;-148.15;100.00;61821.78;4991853;28;20026;-88
2023/08/23 07:29:46;;;;;;;11.13;5.65;;;;;;;-148.15;100.00;61821.78;4980451;28;20032;-87
2023/08/23 07:32:12;;;;;;;11.33;5.63;;;;;;;-148.15;100.00;61821.78;4965310;28;20125;-87
2023/08/23 07:34:37;;;;;;;8.53;5.40;;;;;;;-148.15;100.00;61821.78;4990155;28;20023;-88
2023/08/23 07:37:02;;;;;;;13.57;5.90;;;;;;;-148.15;100.00;61821.78;4981781;28;20073;-88
2023/08/23 07:39:28;;;;;;;10.73;5.67;;;;;;;-148.15;100.00;61821.78;4992673;28;20033;-88
2023/08/23 07:41:54;;;;;;;14.32;5.40;;;;;;;-148.15;100.00;61821.78;4992554;28;20146;-88
2023/08/23 07:44:20;;;;;;;11.40;5.97;;;;;;;-148.15;100.00;61821.78;4973399;28;20031;-88
2023/08/23 07:46:45;;;;;;;12.70;5.67;;;;;;;-148.15;100.00;61821.78;4981849;28;20298;-88
2023/08/23 07:49:11;;;;;;;10.03;5.30;;;;;;;-148.15;100.00;61821.78;4992239;28;20034;-88
2023/08/23 07:51:37;;;;;;;10.15;5.50;;;;;;;-148.15;100.00;61821.78;4991848;28;20038;-88
2023/08/23 07:54:03;;;;;;;10.23;5.53;;;;;;;-148.15;100.00;61821.78;4992634;28;20026;-88
2023/08/23 07:56:29;;;;;;;14.07;5.78;;;;;;;-148.15;100.00;61821.78;4991475;28;20109;-88
2023/08/23 07:58:54;;;;;;;11.60;5.72;;;;;;;-148.15;100.00;61821.78;4988129;28;20062;-88
2023/08/23 08:01:19;;;;;;;9.57;5.33;;;;;;;-148.15;100.00;61821.78;4987691;28;20553;-88
2023/08/23 08:03:45;;;;;;;7.60;5.60;;;;;;;-148.15;100.00;61821.78;4992138;28;20073;-88
2023/08/23 08:06:10;;;;;;;9.27;4.57;;;;;;;-148.15;100.00;61821.78;4992104;28;20033;-90
2023/08/23 08:08:39;;;;;;;9.57;5.30;;;;;;;-148.15;100.00;61821.78;4992442;28;20707;-89
2023/08/23 08:11:05;;;;;;;7.95;4.93;;;;;;;-148.15;100.00;61821.78;4993052;28;20034;-89
2023/08/23 08:13:30;;;;;;;9.07;4.47;;;;;;;-148.15;100.00;61821.78;4992258;28;20041;-89
2023/08/23 08:15:56;;;;;;;9.57;4.50;;;;;;;-148.15;100.00;61821.78;4990394;28;20026;-89
2023/08/23 08:18:21;;;;;;;6.78;3.40;;;;;;;-148.15;100.00;61821.78;4991191;28;20033;-88
2023/08/23 08:20:48;;;;;;;5.10;2.67;;;;;;;-148.15;100.00;61821.78;4991375;28;20097;-87
2023/08/23 08:23:13;;;;;;;4.35;2.92;;;;;;;-148.15;100.00;61821.78;4992089;28;20045;-88
2023/08/23 08:25:39;;;;;;;5.90;3.47;;;;;;;-148.15;100.00;61821.78;4991102;28;20482;-88
2023/08/23 08:28:05;;;;;;;6.90;3.50;;;;;;;-148.15;100.00;61821.78;4991192;28;20066;-89
2023/08/23 08:30:30;;;;;;;5.40;3.10;;;;;;;-148.15;100.00;61821.78;4991999;28;20026;-88
2023/08/23 08:32:55;;;;;;;5.30;2.63;;;;;;;-148.15;100.00;61821.78;4990231;28;20571;-89
2023/08/23 08:35:21;;;;;;;4.05;2.55;;;;;;;-148.15;100.00;61821.78;4991997;28;20027;-89
2023/08/23 08:37:46;;;;;;;5.13;3.00;;;;;;;-148.15;100.00;61821.78;4990991;28;20022;-88
2023/08/23 08:40:12;;;;;;;6.63;2.83;;;;;;;-148.15;100.00;61821.78;4991695;28;20014;-89
2023/08/23 08:42:38;;;;;;;8.17;3.20;;;;;;;-148.15;100.00;61821.78;4990867;28;20022;-88
2023/08/23 08:45:05;;;;;;;5.03;3.65;;;;;;;-148.15;100.00;61821.78;4972092;28;20054;-88
2023/08/23 08:47:30;;;;;;;7.50;3.42;;;;;;;-148.15;100.00;61821.78;4971909;28;20045;-89
2023/08/23 08:49:57;;;;;;;9.37;2.80;;;;;;;-148.15;100.00;61821.78;4985568;28;20031;-89
2023/08/23 08:52:26;;;;;;;5.25;2.75;;;;;;;-148.15;100.00;61821.78;4957495;28;20122;-89
2023/08/23 08:54:53;;;;;;;4.50;2.90;;;;;;;-148.15;100.00;61821.78;4971920;28;20410;-88
2023/08/23 08:57:19;;;;;;;5.15;2.70;;;;;;;-148.15;100.00;61821.78;4975167;28;20037;-89
2023/08/23 08:59:45;;;;;;;6.88;2.95;;;;;;;-148.15;100.00;61821.78;4980280;28;20022;-89
2023/08/23 09:02:14;;;;;;;6.22;2.75;;;;;;;-148.15;100.00;61821.78;4991853;28;20035;-89
2023/08/23 09:04:40;;;;;;;5.50;2.88;;;;;;;-148.15;100.00;61821.78;4990393;28;20504;-89
2023/08/23 09:07:06;;;;;;;5.43;2.30;;;;;;;-148.15;100.00;61821.78;4991608;28;20101;-89
2023/08/23 09:09:31;;;;;;;7.03;2.10;;;;;;;-148.15;100.00;61821.78;4991724;28;20025;-89
2023/08/23 09:11:56;;;;;;;6.43;2.65;;;;;;;-148.15;100.00;61821.78;4991118;28;20034;-90
2023/08/23 09:14:25;;;;;;;8.37;2.70;;;;;;;-148.15;100.00;61821.78;4990857;28;20030;-90
2023/08/23 09:16:50;;;;;;;4.88;2.50;;;;;;;-148.15;100.00;61821.78;4989885;28;20125;-89
2023/08/23 09:19:16;;;;;;;4.40;2.90;;;;;;;-148.15;100.00;61821.78;4990816;28;20111;-89
2023/08/23 09:21:43;;;;;;;6.70;2.95;;;;;;;-148.15;100.00;61821.78;4990634;28;20084;-90
2023/08/23 09:24:10;;;;;;;6.93;2.70;;;;;;;-148.15;100.00;61821.78;4992047;28;20030;-90
2023/08/23 09:26:35;;;;;;;7.43;2.20;;;;;;;-148.15;100.00;61821.78;4991503;28;20482;-90
2023/08/23 09:29:02;;;;;;;5.90;2.50;;;;;;;-148.15;100.00;61821.78;4992583;28;20023;-89
2023/08/23 09:31:27;;;;;;;4.77;2.30;;;;;;;-148.15;100.00;61821.78;4991786;28;20672;-90
2023/08/23 09:33:53;;;;;;;8.33;3.30;;;;;;;-148.15;100.00;61821.78;4990309;28;20289;-89
2023/08/23 09:36:29;;;;;;;7.43;3.53;;;;;;;-148.15;100.00;61821.78;4990833;28;20041;-89
2023/08/23 09:39:00;;;;;;;6.72;2.78;;;;;;;-148.15;100.00;61821.78;4974959;28;20058;-89
2023/08/23 09:41:26;;;;;;;9.45;4.30;;;;;;;-148.15;100.00;61821.78;4972241;28;20391;-89
2023/08/23 09:43:56;;;;;;;8.02;3.88;;;;;;;-148.15;100.00;61821.78;4972626;28;20030;-90
2023/08/23 09:46:28;;;;;;;7.05;4.18;;;;;;;-148.15;100.00;61821.78;4972004;28;20534;-91
2023/08/23 09:48:56;;;;;;;6.22;3.97;;;;;;;-148.15;100.00;61821.78;4982957;28;20413;-89
2023/08/23 09:51:24;;;;;;;8.10;3.47;;;;;;;-148.15;100.00;61821.78;4993105;28;20031;-90
2023/08/23 09:53:54;;;;;;;7.70;3.23;;;;;;;-148.15;100.00;61821.78;4990601;28;20290;-90
2023/08/23 09:56:22;;;;;;;7.10;3.33;;;;;;;-148.15;100.00;61821.78;4974986;28;20054;-89
2023/08/23 09:58:47;;;;;;;8.68;4.00;;;;;;;-148.15;100.00;61821.78;4974854;28;20571;-89
2023/08/23 10:01:15;;;;;;;11.85;5.10;;;;;;;-148.15;100.00;61821.78;4976716;28;20132;-90
2023/08/23 10:03:41;;;;;;;8.37;4.37;;;;;;;-148.15;100.00;61821.78;4992636;28;20045;-89
2023/08/23 10:06:07;;;;;;;12.48;4.13;;;;;;;-148.15;100.00;61821.78;4994161;28;20113;-90
2023/08/23 10:08:35;;;;;;;8.18;5.00;;;;;;;-148.15;100.00;61821.78;4999039;28;20105;-90
2023/08/23 10:11:01;;;;;;;9.20;5.00;;;;;;;-148.15;100.00;61821.78;4995232;28;20565;-89
2023/08/23 10:13:27;;;;;;;11.50;5.17;;;;;;;-148.15;100.00;61821.78;4995652;28;20109;-90
2023/08/23 10:15:54;;;;;;;11.70;5.13;;;;;;;-148.15;100.00;61821.78;4991346;28;20100;-90
2023/08/23 10:18:21;;;;;;;12.43;4.45;;;;;;;-148.15;100.00;61821.78;4976185;28;20037;-90
2023/08/23 10:20:47;;;;;;;12.80;4.40;;;;;;;-148.15;100.00;61821.78;4976261;28;20039;-89
2023/08/23 10:23:15;;;;;;;14.17;5.03;;;;;;;-148.15;100.00;61821.78;4975798;28;20434;-90
2023/08/23 10:25:42;;;;;;;13.32;5.35;;;;;;;-148.15;100.00;61821.78;4974819;28;20030;-88
2023/08/23 10:28:08;;;;;;;8.98;4.85;;;;;;;-148.15;100.00;61821.78;4995179;28;20039;-90
2023/08/23 10:30:34;;;;;;;8.17;4.03;;;;;;;-148.15;100.00;61821.78;5000733;28;20356;-89
2023/08/23 10:33:16;;;;;;;8.27;3.40;;;;;;;-148.15;100.00;61821.78;4996535;28;20312;-90
2023/08/23 10:35:45;;;;;;;6.40;4.28;;;;;;;-148.15;100.00;61821.78;4986896;28;20030;-90
2023/08/23 10:38:12;;;;;;;5.55;4.00;;;;;;;-148.15;100.00;61821.78;4988310;28;20256;-91
2023/08/23 10:40:39;;;;;;;6.10;3.67;;;;;;;-148.15;100.00;61821.78;4983958;28;20585;-90
2023/08/23 10:43:17;;;;;;;7.80;3.60;;;;;;;-148.15;100.00;61821.78;4993525;28;20065;-90
2023/08/23 10:45:50;;;;;;;5.40;3.53;;;;;;;-148.15;100.00;61821.78;5002208;28;20035;-90
2023/08/23 10:48:17;;;;;;;8.40;4.10;;;;;;;-148.15;100.00;61821.78;5003846;28;20434;-90
2023/08/23 10:50:43;;;;;;;9.15;4.00;;;;;;;-148.15;100.00;61821.78;4988230;28;20038;-90
2023/08/23 10:53:10;;;;;;;6.23;4.50;;;;;;;-148.15;100.00;61821.78;4989712;28;20056;-90
2023/08/23 10:55:37;;;;;;;7.53;3.85;;;;;;;-148.15;100.00;61821.78;4984660;28;20031;-90
2023/08/23 10:58:02;;;;;;;6.82;3.90;;;;;;;-148.15;100.00;61821.78;4987101;28;20030;-89
2023/08/23 11:00:28;;;;;;;5.35;3.30;;;;;;;-148.15;100.00;61821.78;4976804;28;20234;-90
2023/08/23 11:02:55;;;;;;;5.03;4.00;;;;;;;-148.15;100.00;61821.78;4973250;28;20030;-90
2023/08/23 11:05:22;;;;;;;5.72;3.85;;;;;;;-148.15;100.00;61821.78;4977718;28;20081;-90
2023/08/23 11:07:47;;;;;;;4.57;3.35;;;;;;;-148.15;100.00;61821.78;4992973;28;20022;-90
2023/08/23 11:10:12;;;;;;;5.63;3.27;;;;;;;-148.15;100.00;61821.78;4993106;28;20161;-90